Time;durP1;ratioP1;P1;durP2;ratioP2;P2;SDS_P1;SDS_P2;PMS_P1;PMS_P2;Temp;Humidity;BMP_temperature;BMP_pressure;BME280_temperature;BME280_humidity;BME280_pressure;Samples;Min_cycle;Max_cycle;Signal;HPM_P1;HPM_P2
2021/03/26 00:00:58;;;;;;;9.13;3.13;;;9.30;73.70;;;;;;4953632;29;20034;-75
2021/03/26 00:03:27;;;;;;;8.07;3.05;;;9.30;73.70;;;;;;4954083;29;20026;-75
2021/03/26 00:06:00;;;;;;;10.85;3.75;;;9.30;73.80;;;;;;4953291;29;20035;-74
2021/03/26 00:08:26;;;;;;;9.45;3.50;;;9.20;73.80;;;;;;4952811;29;20144;-74
2021/03/26 00:10:53;;;;;;;12.77;3.53;;;9.20;73.90;;;;;;4966143;28;20755;-73
2021/03/26 00:13:19;;;;;;;9.30;3.55;;;9.20;74.00;;;;;;4972807;28;20077;-73
2021/03/26 00:15:44;;;;;;;10.23;3.40;;;9.20;74.10;;;;;;4972340;28;20031;-72
2021/03/26 00:18:10;;;;;;;7.97;3.28;;;9.20;74.10;;;;;;4972857;28;20027;-74
2021/03/26 00:20:36;;;;;;;12.07;3.53;;;9.20;74.30;;;;;;4972516;28;20109;-74
2021/03/26 00:23:03;;;;;;;10.98;4.00;;;9.20;74.40;;;;;;4955597;28;20026;-74
2021/03/26 00:25:30;;;;;;;7.60;3.50;;;9.10;74.40;;;;;;4955568;28;20472;-74
2021/03/26 00:27:55;;;;;;;7.10;3.40;;;9.10;74.50;;;;;;4972526;28;20038;-74
2021/03/26 00:30:22;;;;;;;8.55;2.85;;;9.10;74.60;;;;;;4973012;28;20023;-74
2021/03/26 00:32:48;;;;;;;10.52;3.80;;;9.10;74.70;;;;;;4954846;28;20122;-74
2021/03/26 00:35:16;;;;;;;11.70;3.53;;;9.10;74.80;;;;;;4955574;28;20077;-75
2021/03/26 00:37:42;;;;;;;7.00;3.40;;;9.10;74.90;;;;;;4972014;28;20411;-75
2021/03/26 00:40:12;;;;;;;10.48;4.25;;;9.10;74.90;;;;;;4972816;28;20034;-75
2021/03/26 00:42:38;;;;;;;7.78;3.35;;;9.00;74.90;;;;;;4972187;28;20026;-75
2021/03/26 00:45:06;;;;;;;10.27;3.65;;;9.00;75.00;;;;;;4972765;28;20039;-75
2021/03/26 00:47:32;;;;;;;9.68;4.35;;;9.00;75.00;;;;;;4972532;28;20051;-75
2021/03/26 00:49:57;;;;;;;6.82;3.42;;;8.90;75.00;;;;;;4954732;28;20019;-75
2021/03/26 00:52:23;;;;;;;9.02;3.83;;;8.90;75.10;;;;;;4972602;28;20027;-75
2021/03/26 00:54:49;;;;;;;7.50;3.78;;;9.00;75.20;;;;;;4972243;28;20051;-74
2021/03/26 00:57:15;;;;;;;9.65;3.58;;;8.90;75.10;;;;;;4972423;28;20054;-74
2021/03/26 00:59:40;;;;;;;9.13;3.58;;;9.00;75.10;;;;;;4972221;28;20423;-75
2021/03/26 01:02:06;;;;;;;10.65;4.70;;;9.00;75.10;;;;;;4972721;28;20418;-75
2021/03/26 01:04:31;;;;;;;7.45;3.42;;;9.00;75.00;;;;;;4972322;28;20411;-75
2021/03/26 01:06:58;;;;;;;8.00;4.00;;;9.00;75.00;;;;;;4972239;28;20034;-75
2021/03/26 01:09:23;;;;;;;12.15;4.18;;;9.00;75.00;;;;;;4972251;28;20087;-74
2021/03/26 01:11:49;;;;;;;8.63;3.70;;;9.00;75.10;;;;;;4972126;28;20121;-73
2021/03/26 01:14:19;;;;;;;9.85;4.60;;;9.00;75.30;;;;;;4972236;28;20039;-73
2021/03/26 01:16:45;;;;;;;9.95;4.00;;;8.90;75.30;;;;;;4972027;28;20019;-74
2021/03/26 01:19:13;;;;;;;9.85;4.47;;;8.90;75.40;;;;;;4972496;28;20107;-75
2021/03/26 01:21:39;;;;;;;11.25;4.38;;;8.90;75.50;;;;;;4971926;28;20034;-73
2021/03/26 01:24:08;;;;;;;11.77;4.32;;;8.80;75.50;;;;;;4973996;28;20034;-74
2021/03/26 01:26:34;;;;;;;10.55;3.78;;;8.80;75.70;;;;;;4976189;28;20034;-75
2021/03/26 01:29:00;;;;;;;13.15;4.72;;;8.80;75.70;;;;;;4975205;28;20025;-74
2021/03/26 01:31:28;;;;;;;8.85;3.53;;;8.80;75.80;;;;;;4976131;28;20030;-73
2021/03/26 01:33:54;;;;;;;9.23;3.78;;;8.80;75.80;;;;;;4975572;28;20039;-73
2021/03/26 01:36:20;;;;;;;11.20;4.30;;;8.80;75.80;;;;;;4958718;28;20372;-74
2021/03/26 01:38:46;;;;;;;11.18;4.75;;;8.80;75.80;;;;;;4975538;28;20027;-74
2021/03/26 01:41:40;;;;;;;11.63;4.60;;;8.80;75.90;;;;;;4958596;28;20023;-74
2021/03/26 01:44:07;;;;;;;9.10;3.88;;;8.80;76.00;;;;;;4976030;28;20138;-73
2021/03/26 01:46:33;;;;;;;11.50;3.92;;;8.80;76.00;;;;;;4975859;28;20078;-74
2021/03/26 01:49:02;;;;;;;11.18;4.22;;;8.80;76.10;;;;;;4974912;28;20086;-74
2021/03/26 01:51:41;;;;;;;10.13;4.15;;;8.80;76.00;;;;;;4975836;28;20463;-75
2021/03/26 01:54:13;;;;;;;9.38;4.55;;;8.80;76.00;;;;;;4975684;28;20498;-74
2021/03/26 01:56:40;;;;;;;8.73;3.90;;;8.90;75.90;;;;;;4958297;28;20093;-73
2021/03/26 01:59:05;;;;;;;11.38;4.72;;;8.90;75.80;;;;;;4975569;28;20027;-73
2021/03/26 02:01:44;;;;;;;9.77;4.25;;;8.90;75.70;;;;;;4975327;28;20153;-74
2021/03/26 02:04:23;;;;;;;12.40;3.95;;;8.90;75.80;;;;;;4975765;28;20038;-73
2021/03/26 02:06:52;;;;;;;10.10;4.20;;;8.90;75.80;;;;;;4974928;28;20031;-74
2021/03/26 02:09:28;;;;;;;12.75;3.90;;;8.90;76.00;;;;;;4975450;28;20019;-74
2021/03/26 02:12:06;;;;;;;12.35;4.70;;;8.80;76.20;;;;;;4974328;28;20510;-74
2021/03/26 02:14:38;;;;;;;10.63;4.82;;;8.80;76.30;;;;;;4974896;28;20440;-75
2021/03/26 02:17:05;;;;;;;8.02;3.97;;;8.80;76.50;;;;;;4957274;28;20387;-75
2021/03/26 02:19:58;;;;;;;12.98;5.07;;;8.70;76.50;;;;;;4975253;28;20029;-75
2021/03/26 02:22:28;;;;;;;13.00;4.18;;;8.70;77.30;;;;;;4974768;28;20053;-80
2021/03/26 02:24:54;;;;;;;10.38;4.43;;;8.70;76.90;;;;;;4974284;28;20062;-74
2021/03/26 02:27:33;;;;;;;9.77;4.00;;;8.60;77.00;;;;;;4975132;28;20460;-75
2021/03/26 02:30:00;;;;;;;10.07;3.58;;;8.60;77.00;;;;;;4974464;28;20102;-74
2021/03/26 02:32:35;;;;;;;12.82;4.80;;;8.60;77.10;;;;;;4974833;28;20015;-73
2021/03/26 02:35:25;;;;;;;14.48;4.88;;;8.60;77.20;;;;;;4974347;28;20031;-73
2021/03/26 02:38:27;;;;;;;8.18;3.95;;;8.50;77.20;;;;;;4974267;28;20027;-74
2021/03/26 02:41:12;;;;;;;10.98;5.07;;;8.50;77.20;;;;;;4974228;28;20034;-74
2021/03/26 02:43:49;;;;;;;12.20;4.60;;;8.50;77.20;;;;;;4975108;28;20057;-74
2021/03/26 02:46:27;;;;;;;11.48;4.43;;;8.50;77.30;;;;;;4974954;28;20031;-74
2021/03/26 02:49:06;;;;;;;11.93;4.60;;;8.40;77.40;;;;;;4974093;28;20104;-74
2021/03/26 02:51:41;;;;;;;10.63;4.57;;;8.40;77.50;;;;;;4957301;28;20118;-74
2021/03/26 02:54:20;;;;;;;11.27;4.53;;;8.40;78.10;;;;;;4974017;28;20110;-74
2021/03/26 02:56:48;;;;;;;10.57;4.32;;;8.30;77.40;;;;;;4973995;28;20019;-74
2021/03/26 02:59:19;;;;;;;10.07;4.03;;;8.30;77.50;;;;;;4957082;28;20030;-74
2021/03/26 03:01:51;;;;;;;8.57;4.03;;;8.30;77.50;;;;;;4973933;28;20510;-73
2021/03/26 03:04:48;;;;;;;9.82;3.95;;;8.30;77.60;;;;;;4974357;28;20051;-75
2021/03/26 03:07:16;;;;;;;9.23;4.57;;;8.30;77.60;;;;;;4921392;28;20040;-75
2021/03/26 03:09:46;;;;;;;11.10;3.95;;;8.20;77.60;;;;;;4973992;28;20542;-74
2021/03/26 03:12:25;;;;;;;11.23;4.43;;;8.30;77.60;;;;;;4973782;28;20047;-73
2021/03/26 03:14:57;;;;;;;10.95;4.55;;;8.30;77.40;;;;;;4973657;28;20501;-74
2021/03/26 03:18:06;;;;;;;11.40;3.97;;;8.40;77.40;;;;;;4974607;28;20030;-75
2021/03/26 03:20:46;;;;;;;9.40;4.82;;;8.40;77.30;;;;;;4964519;28;20352;-73
2021/03/26 03:23:16;;;;;;;9.60;3.33;;;8.40;77.30;;;;;;4974271;28;20085;-74
2021/03/26 03:25:42;;;;;;;8.70;4.20;;;8.30;77.40;;;;;;4956521;28;20031;-75
2021/03/26 03:28:20;;;;;;;12.77;4.28;;;8.30;77.40;;;;;;4973233;28;20034;-73
2021/03/26 03:31:10;;;;;;;9.68;4.45;;;8.30;77.40;;;;;;4973786;28;20074;-73
2021/03/26 03:33:45;;;;;;;13.10;4.60;;;8.40;77.40;;;;;;4973803;28;20050;-74
2021/03/26 03:36:20;;;;;;;13.02;4.30;;;8.40;77.50;;;;;;4973207;28;20023;-75
2021/03/26 03:38:52;;;;;;;11.93;4.47;;;8.40;77.40;;;;;;4973697;28;20027;-74
2021/03/26 03:41:25;;;;;;;14.80;4.63;;;8.40;77.50;;;;;;4973727;28;20427;-74
2021/03/26 03:44:09;;;;;;;13.48;5.10;;;8.40;77.50;;;;;;4973026;28;20041;-74
2021/03/26 03:46:49;;;;;;;12.52;4.80;;;8.40;77.40;;;;;;4973120;28;20031;-73
2021/03/26 03:49:23;;;;;;;15.73;4.47;;;8.40;77.40;;;;;;4956299;28;20467;-74
2021/03/26 03:52:05;;;;;;;11.68;4.30;;;8.50;77.40;;;;;;4973058;28;20023;-75
2021/03/26 03:54:32;;;;;;;15.80;5.05;;;8.50;77.40;;;;;;4992044;28;20033;-76
2021/03/26 03:57:03;;;;;;;13.23;4.78;;;8.50;77.40;;;;;;4991969;28;20104;-74
2021/03/26 03:59:34;;;;;;;11.48;4.68;;;8.50;77.40;;;;;;4992813;28;20348;-74
2021/03/26 04:02:02;;;;;;;;;;;8.60;77.40;;;;;;4992548;28;20536;-74
2021/03/26 04:04:45;;;;;;;14.00;5.50;;;8.50;77.20;;;;;;4992927;28;20384;-74
2021/03/26 04:07:20;;;;;;;11.05;4.82;;;8.70;77.30;;;;;;4992131;28;20030;-73
2021/03/26 04:09:50;;;;;;;12.95;5.00;;;8.70;77.20;;;;;;4992561;28;20465;-75
2021/03/26 04:12:39;;;;;;;16.27;5.13;;;8.70;77.20;;;;;;4992430;28;20046;-75
2021/03/26 04:15:22;;;;;;;14.90;4.47;;;8.70;77.20;;;;;;4984232;28;20043;-76
2021/03/26 04:18:06;;;;;;;11.63;4.43;;;8.70;77.20;;;;;;4992620;28;20030;-75
2021/03/26 04:20:53;;;;;;;12.93;5.05;;;8.70;77.20;;;;;;4992013;28;20363;-75
2021/03/26 04:23:30;;;;;;;14.38;4.75;;;8.80;77.30;;;;;;4992142;28;20030;-76
2021/03/26 04:26:19;;;;;;;16.00;4.97;;;8.80;77.30;;;;;;4991597;28;20053;-76
2021/03/26 04:28:48;;;;;;;11.90;4.60;;;8.80;77.30;;;;;;4992509;28;20027;-74
2021/03/26 04:31:23;;;;;;;12.95;5.38;;;8.80;78.00;;;;;;4991695;28;20030;-75
2021/03/26 04:33:49;;;;;;;12.73;4.95;;;8.90;77.40;;;;;;4992883;28;20038;-75
2021/03/26 04:36:22;;;;;;;13.52;5.07;;;8.90;77.40;;;;;;4991874;28;20022;-75
2021/03/26 04:39:02;;;;;;;11.00;5.05;;;8.90;77.50;;;;;;4992192;28;20022;-74
2021/03/26 04:41:39;;;;;;;15.43;4.95;;;9.00;77.50;;;;;;4992318;28;20022;-74
2021/03/26 04:44:26;;;;;;;17.00;5.32;;;8.90;77.50;;;;;;4974151;28;20363;-73
2021/03/26 04:46:54;;;;;;;15.98;5.65;;;9.00;77.60;;;;;;4992031;28;20022;-73
2021/03/26 04:49:32;;;;;;;12.32;4.82;;;9.00;77.50;;;;;;4991941;28;20137;-73
2021/03/26 04:52:11;;;;;;;12.00;5.63;;;9.00;77.60;;;;;;4991775;28;20029;-74
2021/03/26 04:55:07;;;;;;;17.13;5.57;;;9.00;77.70;;;;;;4992622;28;20038;-73
2021/03/26 04:57:45;;;;;;;14.95;5.30;;;9.00;77.70;;;;;;4970840;28;20035;-74
2021/03/26 05:00:34;;;;;;;16.27;4.85;;;9.10;77.80;;;;;;4995158;28;20033;-73
2021/03/26 05:03:13;;;;;;;15.25;5.45;;;9.10;77.90;;;;;;4995424;28;20027;-74
2021/03/26 05:05:43;;;;;;;14.93;5.72;;;9.10;77.80;;;;;;4995665;28;20390;-74
2021/03/26 05:08:10;;;;;;;14.47;5.17;;;9.10;77.90;;;;;;4988563;28;20127;-75
2021/03/26 05:10:37;;;;;;;18.35;5.03;;;9.10;77.80;;;;;;4977449;28;20058;-74
2021/03/26 05:13:25;;;;;;;9.70;4.18;;;9.10;77.90;;;;;;4974323;28;20058;-75
2021/03/26 05:15:56;;;;;;;14.45;5.25;;;9.20;78.50;;;;;;4981025;28;20417;-75
2021/03/26 05:18:32;;;;;;;12.90;5.13;;;9.10;77.80;;;;;;4995239;28;20035;-75
2021/03/26 05:21:05;;;;;;;12.88;5.40;;;9.20;78.00;;;;;;4992602;28;20054;-75
2021/03/26 05:23:50;;;;;;;12.90;4.88;;;9.20;78.10;;;;;;4975738;28;20383;-75
2021/03/26 05:26:16;;;;;;;13.10;5.28;;;9.20;78.20;;;;;;4994756;28;20039;-75
2021/03/26 05:28:44;;;;;;;14.45;4.55;;;9.20;78.20;;;;;;4995312;28;20026;-74
2021/03/26 05:31:49;;;;;;;13.25;5.07;;;9.20;78.20;;;;;;4994858;28;20105;-74
2021/03/26 05:34:27;;;;;;;15.60;4.95;;;9.30;78.30;;;;;;4978785;28;20069;-70
2021/03/26 05:37:02;;;;;;;22.85;8.90;;;9.30;78.20;;;;;;4978082;28;20118;-74
2021/03/26 05:39:33;;;;;;;13.70;6.30;;;9.30;78.30;;;;;;4995384;28;20066;-74
2021/03/26 05:42:04;;;;;;;14.33;5.87;;;9.30;78.40;;;;;;4977259;28;20037;-75
2021/03/26 05:44:45;;;;;;;;;;;9.40;78.50;;;;;;4995593;28;20774;-75
2021/03/26 05:47:34;;;;;;;12.65;4.38;;;9.30;78.30;;;;;;4994595;28;19951;-75
2021/03/26 05:50:22;;;;;;;10.45;4.82;;;9.30;78.40;;;;;;4994589;28;20026;-76
2021/03/26 05:53:05;;;;;;;14.13;5.07;;;9.40;78.60;;;;;;4994952;28;20019;-75
2021/03/26 05:55:56;;;;;;;13.90;4.90;;;9.40;78.70;;;;;;4977515;28;20114;-75
2021/03/26 05:58:32;;;;;;;13.60;4.90;;;9.40;78.70;;;;;;4994517;28;20037;-74
2021/03/26 06:01:24;;;;;;;12.70;5.10;;;9.40;78.70;;;;;;4994621;28;20101;-75
2021/03/26 06:04:04;;;;;;;10.77;5.28;;;9.50;78.90;;;;;;4992293;28;20033;-81
2021/03/26 06:06:41;;;;;;;11.88;5.35;;;9.50;78.80;;;;;;4993082;28;20034;-81
2021/03/26 06:09:25;;;;;;;12.30;5.07;;;9.60;78.70;;;;;;4974675;28;20524;-83
2021/03/26 06:12:18;;;;;;;17.67;6.53;;;9.60;78.70;;;;;;4972429;28;20050;-83
2021/03/26 06:15:08;;;;;;;14.45;4.68;;;9.70;78.70;;;;;;4972712;28;20170;-82
2021/03/26 06:17:54;;;;;;;15.23;5.18;;;9.70;78.70;;;;;;4973980;28;20034;-77
2021/03/26 06:20:25;;;;;;;16.67;5.22;;;9.80;78.70;;;;;;4974542;28;20454;-74
2021/03/26 06:23:09;;;;;;;;;;;9.80;78.60;;;;;;4975798;28;20526;-74
2021/03/26 06:26:03;;;;;;;14.05;5.63;;;9.80;78.40;;;;;;4975056;28;19944;-74
2021/03/26 06:28:44;;;;;;;16.67;5.43;;;9.90;78.40;;;;;;4975004;28;20022;-75
2021/03/26 06:31:53;;;;;;;12.13;5.05;;;9.90;78.50;;;;;;4974587;28;20030;-74
2021/03/26 06:34:45;;;;;;;14.45;6.32;;;10.00;78.40;;;;;;4974021;28;20027;-75
2021/03/26 06:37:26;;;;;;;13.32;5.38;;;10.00;78.50;;;;;;4972984;28;20058;-75
2021/03/26 06:40:04;;;;;;;16.33;5.20;;;10.10;78.50;;;;;;4975080;28;20533;-75
2021/03/26 06:42:46;;;;;;;18.25;5.85;;;10.10;78.50;;;;;;4974986;28;20027;-75
2021/03/26 06:45:37;;;;;;;14.40;5.68;;;10.20;78.50;;;;;;4974214;28;20042;-75
2021/03/26 06:48:30;;;;;;;16.58;5.57;;;10.20;78.50;;;;;;4974265;28;20022;-75
2021/03/26 06:51:14;;;;;;;17.05;6.47;;;10.20;78.50;;;;;;4973310;28;20342;-74
2021/03/26 06:53:55;;;;;;;18.88;6.32;;;10.20;78.50;;;;;;4974585;28;20023;-74
2021/03/26 06:56:38;;;;;;;14.20;6.50;;;10.30;78.50;;;;;;4973910;28;20026;-74
2021/03/26 06:59:57;;;;;;;19.60;6.45;;;10.30;78.50;;;;;;4973765;28;20046;-74
2021/03/26 07:03:05;;;;;;;15.35;5.63;;;10.30;78.40;;;;;;4936854;28;20085;-73
2021/03/26 07:05:56;;;;;;;18.67;7.38;;;10.40;78.50;;;;;;4973003;28;20038;-74
2021/03/26 07:08:27;;;;;;;14.65;5.72;;;10.40;78.40;;;;;;4973822;28;20027;-76
2021/03/26 07:11:18;;;;;;;14.73;7.03;;;10.40;78.30;;;;;;4978985;28;20082;-75
2021/03/26 07:14:09;;;;;;;20.65;5.97;;;10.50;78.20;;;;;;4976325;28;20035;-75
2021/03/26 07:16:47;;;;;;;15.07;5.65;;;10.50;78.10;;;;;;4993728;28;20026;-76
2021/03/26 07:19:52;;;;;;;15.60;6.35;;;10.60;78.20;;;;;;4993180;28;20026;-76
2021/03/26 07:22:49;;;;;;;12.60;5.75;;;10.60;78.10;;;;;;4992346;28;20506;-77
2021/03/26 07:25:38;;;;;;;19.55;6.55;;;10.60;78.00;;;;;;4975926;28;20050;-75
2021/03/26 07:28:39;;;;;;;18.13;6.50;;;10.70;78.10;;;;;;4993672;28;20070;-76
2021/03/26 07:31:13;;;;;;;17.25;7.70;;;10.70;78.00;;;;;;4993643;28;20033;-76
2021/03/26 07:34:04;;;;;;;16.90;6.50;;;10.80;78.00;;;;;;4994679;28;20026;-77
2021/03/26 07:36:38;;;;;;;24.48;8.57;;;10.80;78.00;;;;;;4994749;28;20038;-76
2021/03/26 07:39:25;;;;;;;17.83;6.97;;;10.80;77.90;;;;;;4997653;28;20134;-76
2021/03/26 07:42:01;;;;;;;17.25;7.13;;;10.90;77.80;;;;;;4994270;28;20026;-77
2021/03/26 07:44:55;;;;;;;13.38;6.13;;;10.90;77.80;;;;;;4993865;28;20467;-76
2021/03/26 07:47:43;;;;;;;22.13;6.95;;;10.90;77.70;;;;;;4994448;28;20474;-76
2021/03/26 07:50:24;;;;;;;18.17;7.85;;;10.90;78.30;;;;;;4975434;28;20072;-76
2021/03/26 07:53:27;;;;;;;14.20;6.85;;;10.90;77.60;;;;;;4994389;28;20101;-76
2021/03/26 07:56:22;;;;;;;15.05;6.32;;;10.90;77.80;;;;;;4993261;28;20038;-76
2021/03/26 07:59:00;;;;;;;16.00;7.30;;;10.80;78.00;;;;;;4993008;28;20026;-76
2021/03/26 08:01:44;;;;;;;16.65;7.50;;;10.80;78.30;;;;;;4992307;28;20026;-75
2021/03/26 08:04:25;;;;;;;15.05;6.25;;;10.80;78.40;;;;;;4992111;28;20447;-76
2021/03/26 08:07:12;;;;;;;16.38;6.25;;;10.80;78.50;;;;;;4993321;28;20482;-76
2021/03/26 08:10:26;;;;;;;23.48;6.85;;;10.70;78.50;;;;;;4975546;28;20029;-76
2021/03/26 08:13:02;;;;;;;18.40;7.20;;;10.70;78.50;;;;;;4961620;28;20047;-76
2021/03/26 08:15:47;;;;;;;18.60;6.80;;;10.60;78.70;;;;;;4992172;28;20085;-76
2021/03/26 08:18:32;;;;;;;20.95;8.18;;;10.70;78.70;;;;;;4992160;28;20105;-76
2021/03/26 08:21:09;;;;;;;15.07;6.10;;;10.70;78.70;;;;;;4992718;28;20077;-76
2021/03/26 08:23:58;;;;;;;12.02;5.88;;;10.70;78.80;;;;;;4975163;28;20446;-76
2021/03/26 08:26:49;;;;;;;13.68;5.25;;;10.70;78.70;;;;;;4991955;28;20044;-76
2021/03/26 08:29:31;;;;;;;15.10;5.57;;;10.80;78.70;;;;;;4990112;28;20125;-76
2021/03/26 08:32:06;;;;;;;18.58;6.35;;;10.80;78.60;;;;;;4992207;28;20023;-78
2021/03/26 08:35:12;;;;;;;14.32;5.85;;;10.80;78.50;;;;;;4974296;28;20022;-77
2021/03/26 08:37:54;;;;;;;13.48;6.97;;;10.90;78.40;;;;;;4992307;28;20082;-77
2021/03/26 08:40:25;;;;;;;13.60;6.43;;;10.90;78.30;;;;;;4974213;28;20054;-76
2021/03/26 08:42:53;;;;;;;18.52;7.45;;;10.90;78.20;;;;;;4992403;28;20022;-76
2021/03/26 08:45:34;;;;;;;18.17;6.43;;;11.00;78.20;;;;;;4991098;28;20035;-75
2021/03/26 08:48:13;;;;;;;14.93;6.13;;;11.00;78.10;;;;;;4992280;28;20078;-76
2021/03/26 08:50:47;;;;;;;15.88;5.70;;;11.10;78.10;;;;;;4992242;28;20076;-76
2021/03/26 08:53:35;;;;;;;15.50;6.38;;;11.10;78.00;;;;;;4973983;28;20493;-76
2021/03/26 08:56:09;;;;;;;11.38;5.38;;;11.20;77.90;;;;;;4991832;28;20026;-76
2021/03/26 08:59:13;;;;;;;11.82;6.28;;;11.20;77.80;;;;;;4991410;28;20057;-76
2021/03/26 09:02:06;;;;;;;12.93;4.85;;;11.30;77.50;;;;;;4965673;28;20030;-76
2021/03/26 09:04:59;;;;;;;15.73;6.00;;;11.30;77.10;;;;;;4991355;28;20039;-74
2021/03/26 09:08:04;;;;;;;12.00;4.75;;;11.40;77.00;;;;;;4991192;28;20510;-76
2021/03/26 09:10:36;;;;;;;13.68;5.40;;;11.40;76.70;;;;;;4991245;28;20022;-77
2021/03/26 09:13:38;;;;;;;12.15;5.05;;;11.40;76.70;;;;;;4992199;28;20487;-76
2021/03/26 09:16:22;;;;;;;12.35;5.13;;;11.60;76.50;;;;;;4996074;28;20037;-75
2021/03/26 09:19:00;;;;;;;13.95;5.03;;;11.60;76.40;;;;;;4977012;28;20041;-76
2021/03/26 09:21:58;;;;;;;12.82;5.05;;;11.70;76.00;;;;;;4991651;28;20026;-76
2021/03/26 09:24:35;;;;;;;12.77;4.43;;;11.80;75.50;;;;;;4991270;28;20541;-76
2021/03/26 09:27:24;;;;;;;14.25;4.82;;;11.80;75.00;;;;;;4974499;28;20035;-76
2021/03/26 09:30:22;;;;;;;10.45;5.20;;;11.80;74.40;;;;;;4974393;28;20456;-76
2021/03/26 09:33:05;;;;;;;10.18;5.15;;;11.90;74.10;;;;;;4992006;28;20022;-77
2021/03/26 09:35:48;;;;;;;13.23;4.38;;;12.00;73.40;;;;;;4973995;28;20032;-76
2021/03/26 09:38:14;;;;;;;8.95;4.07;;;12.10;72.80;;;;;;4991604;28;20018;-76
2021/03/26 09:40:52;;;;;;;10.18;4.07;;;12.30;72.70;;;;;;4991299;28;20046;-77
2021/03/26 09:43:24;;;;;;;10.32;4.72;;;12.50;72.10;;;;;;4991159;28;20027;-76
2021/03/26 09:45:52;;;;;;;8.85;4.30;;;12.70;71.70;;;;;;4976782;28;20030;-76
2021/03/26 09:48:33;;;;;;;10.45;4.15;;;12.80;71.20;;;;;;4994661;28;20105;-75
2021/03/26 09:51:24;;;;;;;7.50;3.55;;;12.90;71.00;;;;;;4995016;28;20105;-77
2021/03/26 09:53:51;;;;;;;11.93;4.25;;;12.80;70.90;;;;;;4977671;28;20018;-77
2021/03/26 09:56:35;;;;;;;9.32;4.95;;;12.80;70.60;;;;;;4994221;28;20054;-75
2021/03/26 09:59:09;;;;;;;9.07;4.15;;;12.80;70.80;;;;;;4977686;28;20022;-76
2021/03/26 10:02:15;;;;;;;10.15;4.22;;;12.80;70.70;;;;;;4994169;28;20022;-77
2021/03/26 10:04:57;;;;;;;13.95;4.50;;;12.80;70.50;;;;;;4968587;28;20070;-76
2021/03/26 10:07:36;;;;;;;10.07;4.05;;;12.90;70.30;;;;;;4994398;28;20077;-76
2021/03/26 10:12:56;;;;;;;8.68;3.63;;;13.20;69.50;;;;;;4994827;28;20109;-77
2021/03/26 10:15:37;;;;;;;7.82;2.70;;;13.40;68.70;;;;;;4976702;28;20500;-75
2021/03/26 10:18:32;;;;;;;6.80;3.25;;;13.60;67.90;;;;;;4976947;28;20032;-77
2021/03/26 10:21:00;;;;;;;8.38;3.53;;;13.80;66.80;;;;;;4994503;28;20026;-77
2021/03/26 10:23:38;;;;;;;8.77;2.85;;;13.80;65.60;;;;;;4993945;28;20037;-78
2021/03/26 10:26:26;;;;;;;8.60;3.33;;;14.00;65.60;;;;;;4994493;28;20023;-77
2021/03/26 10:29:18;;;;;;;6.55;2.10;;;14.00;64.40;;;;;;4977116;28;20421;-77
2021/03/26 10:31:46;;;;;;;6.95;3.00;;;14.00;65.00;;;;;;4994237;28;20475;-76
2021/03/26 10:34:16;;;;;;;8.40;3.05;;;14.00;65.00;;;;;;4976929;28;20489;-76
2021/03/26 10:36:51;;;;;;;9.88;4.25;;;14.00;64.80;;;;;;4993451;28;20426;-77
2021/03/26 10:39:42;;;;;;;9.00;2.45;;;14.10;64.30;;;;;;4976817;28;20037;-77
2021/03/26 10:42:19;;;;;;;5.07;3.05;;;14.20;64.00;;;;;;4994290;28;20022;-76
2021/03/26 10:45:03;;;;;;;4.75;2.25;;;14.30;63.40;;;;;;4994153;28;20040;-77
2021/03/26 10:47:45;;;;;;;6.55;2.47;;;14.40;63.30;;;;;;4993552;28;20033;-76
2021/03/26 10:50:10;;;;;;;6.13;2.47;;;14.50;62.80;;;;;;4993783;28;20026;-77
2021/03/26 10:52:44;;;;;;;6.05;2.17;;;14.50;61.10;;;;;;4975779;28;20030;-77
2021/03/26 10:55:16;;;;;;;7.30;1.90;;;14.50;61.00;;;;;;4993808;28;20034;-77
2021/03/26 10:57:57;;;;;;;4.63;1.92;;;14.50;61.10;;;;;;4993418;28;20032;-77
2021/03/26 11:00:28;;;;;;;;;;;14.60;61.60;;;;;;4993631;28;20467;-77
2021/03/26 11:03:22;;;;;;;6.70;2.08;;;14.60;61.60;;;;;;4993495;28;19933;-77
2021/03/26 11:05:52;;;;;;;3.25;1.98;;;14.70;59.30;;;;;;4971481;28;20054;-77
2021/03/26 11:08:33;;;;;;;4.47;1.75;;;14.70;59.40;;;;;;4976498;28;20026;-76
2021/03/26 11:11:06;;;;;;;2.63;1.48;;;14.80;58.40;;;;;;4976085;28;20129;-75
2021/03/26 11:13:37;;;;;;;4.20;1.80;;;14.70;56.90;;;;;;4975377;28;20459;-77
2021/03/26 11:16:12;;;;;;;2.85;1.23;;;14.60;56.80;;;;;;4975682;28;20562;-77
2021/03/26 11:19:03;;;;;;;4.22;1.52;;;14.60;57.30;;;;;;4993040;28;20038;-76
2021/03/26 11:22:01;;;;;;;2.08;1.02;;;14.60;56.20;;;;;;4993482;28;20467;-77
2021/03/26 11:24:38;;;;;;;1.75;1.20;;;14.60;55.70;;;;;;4996541;28;20211;-77
2021/03/26 11:27:14;;;;;;;2.17;0.95;;;14.60;55.70;;;;;;4994060;28;20415;-77
2021/03/26 11:29:43;;;;;;;3.10;1.65;;;14.60;56.50;;;;;;4975739;28;20022;-76
2021/03/26 11:32:24;;;;;;;2.58;1.63;;;14.70;57.10;;;;;;4993591;28;20077;-75
2021/03/26 11:34:57;;;;;;;7.13;2.05;;;14.90;57.10;;;;;;4976266;28;20488;-76
2021/03/26 11:37:36;;;;;;;4.18;1.80;;;14.80;56.40;;;;;;4975449;28;20022;-77
2021/03/26 11:40:34;;;;;;;4.43;1.33;;;15.00;56.70;;;;;;4993008;28;20474;-76
2021/03/26 11:43:19;;;;;;;2.20;1.35;;;15.10;55.60;;;;;;4992906;28;20019;-77
2021/03/26 11:46:03;;;;;;;2.67;0.82;;;15.10;54.90;;;;;;4992249;28;20180;-77
2021/03/26 11:48:59;;;;;;;7.32;2.40;;;15.30;56.10;;;;;;4992050;28;20105;-76
2021/03/26 11:51:42;;;;;;;6.05;1.92;;;15.50;55.30;;;;;;4992401;28;20026;-76
2021/03/26 11:54:41;;;;;;;2.80;1.50;;;15.70;55.40;;;;;;4975444;28;20022;-77
2021/03/26 11:57:26;;;;;;;3.83;1.30;;;15.90;55.20;;;;;;4992684;28;20072;-77
2021/03/26 12:00:12;;;;;;;2.83;1.40;;;16.10;54.80;;;;;;4993216;28;20101;-77
2021/03/26 12:03:08;;;;;;;2.55;2.10;;;16.10;54.80;;;;;;4992524;28;20073;-76
2021/03/26 12:05:56;;;;;;;4.95;2.40;;;16.00;51.60;;;;;;4992409;28;20042;-76
2021/03/26 12:08:28;;;;;;;3.75;1.88;;;15.80;51.70;;;;;;4974987;28;20030;-77
2021/03/26 12:11:05;;;;;;;2.05;1.20;;;15.80;53.00;;;;;;4992580;28;20038;-76
2021/03/26 12:13:39;;;;;;;5.20;1.40;;;15.80;53.50;;;;;;4992149;28;20018;-77
2021/03/26 12:16:24;;;;;;;3.53;1.30;;;16.10;54.20;;;;;;4975171;28;20036;-77
2021/03/26 12:18:55;;;;;;;2.95;1.13;;;16.40;53.40;;;;;;4991944;28;20069;-77
2021/03/26 12:21:34;;;;;;;1.38;1.00;;;16.60;52.80;;;;;;4991851;28;20080;-76
2021/03/26 12:24:34;;;;;;;3.78;1.35;;;16.70;52.70;;;;;;4976399;28;20026;-77
2021/03/26 12:27:10;;;;;;;2.42;1.23;;;16.80;53.00;;;;;;4991543;28;20177;-75
2021/03/26 12:30:07;;;;;;;3.33;1.10;;;16.90;53.00;;;;;;4990509;28;20022;-78
2021/03/26 12:32:38;;;;;;;3.30;1.13;;;17.00;52.50;;;;;;4991350;28;20439;-77
2021/03/26 12:35:18;;;;;;;2.28;1.20;;;17.00;52.30;;;;;;4992365;28;20555;-81
2021/03/26 12:38:13;;;;;;;2.50;1.00;;;17.10;52.40;;;;;;4991256;28;20022;-79
2021/03/26 12:40:41;;;;;;;2.80;1.30;;;17.20;50.30;;;;;;4969478;28;20058;-77
2021/03/26 12:43:22;;;;;;;5.22;1.70;;;17.20;49.60;;;;;;4974722;28;20501;-77
2021/03/26 12:46:16;;;;;;;2.42;1.05;;;17.20;50.20;;;;;;4991536;28;20035;-77
2021/03/26 12:48:43;;;;;;;3.33;1.30;;;17.20;50.40;;;;;;4973577;28;20026;-77
2021/03/26 12:51:21;;;;;;;2.10;1.08;;;17.20;49.10;;;;;;4991632;28;20034;-78
2021/03/26 12:54:10;;;;;;;3.08;1.50;;;17.10;49.10;;;;;;4991084;28;20019;-78
2021/03/26 12:56:55;;;;;;;3.17;1.50;;;16.90;49.70;;;;;;4990044;28;20018;-78
2021/03/26 12:59:35;;;;;;;3.15;1.30;;;16.80;50.50;;;;;;4974046;28;20073;-78
2021/03/26 13:02:11;;;;;;;1.23;1.00;;;16.70;49.30;;;;;;4991930;28;20435;-79
2021/03/26 13:04:40;;;;;;;3.20;1.75;;;16.60;49.60;;;;;;4990523;28;20069;-77
2021/03/26 13:07:27;;;;;;;2.03;1.40;;;16.60;50.00;;;;;;4991835;28;20029;-79
2021/03/26 13:10:52;;;;;;;2.63;1.38;;;16.60;50.50;;;;;;4974976;28;20019;-78
2021/03/26 13:13:37;;;;;;;3.90;1.38;;;16.60;50.70;;;;;;4893389;29;20067;-79
2021/03/26 13:16:44;;;;;;;3.10;1.77;;;16.70;50.70;;;;;;4986164;28;20077;-78
2021/03/26 13:19:19;;;;;;;4.80;1.60;;;16.70;49.50;;;;;;4974419;28;20041;-79
2021/03/26 13:22:02;;;;;;;5.20;2.17;;;16.60;49.20;;;;;;4977367;28;20023;-78
2021/03/26 13:24:37;;;;;;;3.05;1.67;;;16.60;48.80;;;;;;4995627;28;20034;-78
2021/03/26 13:27:20;;;;;;;4.95;2.20;;;16.70;49.60;;;;;;4978177;28;20031;-78
2021/03/26 13:29:59;;;;;;;3.78;1.40;;;16.70;49.30;;;;;;4994777;28;20033;-79
2021/03/26 13:32:34;;;;;;;9.75;2.20;;;16.60;48.90;;;;;;4995421;28;20061;-79
2021/03/26 13:35:01;;;;;;;2.65;1.40;;;16.50;49.20;;;;;;4994406;28;20158;-78
2021/03/26 13:37:32;;;;;;;4.43;1.70;;;16.50;49.10;;;;;;4994996;28;20419;-76
2021/03/26 13:40:17;;;;;;;2.75;1.42;;;16.50;49.10;;;;;;4995168;28;20022;-80
2021/03/26 13:42:47;;;;;;;4.93;1.70;;;16.50;49.40;;;;;;4994936;28;20023;-78
2021/03/26 13:45:22;;;;;;;3.15;1.63;;;16.60;49.60;;;;;;4977825;28;20041;-78
2021/03/26 13:48:11;;;;;;;3.38;1.45;;;16.60;48.90;;;;;;4994774;28;20084;-78
2021/03/26 13:50:41;;;;;;;5.30;1.80;;;16.50;49.30;;;;;;4994727;28;20094;-79
2021/03/26 13:53:21;;;;;;;7.05;1.85;;;16.50;49.00;;;;;;4995129;28;20098;-79